sensor_id;sensor_type;location;lat;lon;timestamp;pressure;altitude;pressure_sealevel;temperature
82400;BMP280;72039;48.812;8.198;2023-08-24T00:00:38;100481.16;;;24.06
82400;BMP280;72039;48.812;8.198;2023-08-24T00:03:06;100473.34;;;24.06
82400;BMP280;72039;48.812;8.198;2023-08-24T00:08:48;100454.88;;;24.09
82400;BMP280;72039;48.812;8.198;2023-08-24T00:11:18;100455.59;;;24.08
82400;BMP280;72039;48.812;8.198;2023-08-24T00:13:47;100445.06;;;24.00
82400;BMP280;72039;48.812;8.198;2023-08-24T00:16:19;100459.97;;;23.95
82400;BMP280;72039;48.812;8.198;2023-08-24T00:18:45;100443.00;;;23.90
82400;BMP280;72039;48.812;8.198;2023-08-24T00:27:55;100441.69;;;23.77
82400;BMP280;72039;48.812;8.198;2023-08-24T00:30:20;100434.63;;;23.74
82400;BMP280;72039;48.812;8.198;2023-08-24T00:32:46;100438.88;;;23.73
82400;BMP280;72039;48.812;8.198;2023-08-24T00:35:11;100429.69;;;23.71
82400;BMP280;72039;48.812;8.198;2023-08-24T00:37:40;100429.72;;;23.64
82400;BMP280;72039;48.812;8.198;2023-08-24T00:40:07;100431.16;;;23.61
82400;BMP280;72039;48.812;8.198;2023-08-24T00:42:44;100425.47;;;23.61
82400;BMP280;72039;48.812;8.198;2023-08-24T00:45:11;100419.88;;;23.57
82400;BMP280;72039;48.812;8.198;2023-08-24T00:47:39;100415.59;;;23.56
82400;BMP280;72039;48.812;8.198;2023-08-24T00:50:09;100420.59;;;23.50
82400;BMP280;72039;48.812;8.198;2023-08-24T00:52:39;100412.16;;;23.44
82400;BMP280;72039;48.812;8.198;2023-08-24T00:55:06;100408.63;;;23.41
82400;BMP280;72039;48.812;8.198;2023-08-24T00:57:32;100415.00;;;23.37
82400;BMP280;72039;48.812;8.198;2023-08-24T01:00:02;100410.06;;;23.36
82400;BMP280;72039;48.812;8.198;2023-08-24T01:02:33;100412.91;;;23.34
82400;BMP280;72039;48.812;8.198;2023-08-24T01:04:59;100421.41;;;23.32
82400;BMP280;72039;48.812;8.198;2023-08-24T01:07:24;100422.84;;;23.27
82400;BMP280;72039;48.812;8.198;2023-08-24T01:09:53;100426.38;;;23.27
82400;BMP280;72039;48.812;8.198;2023-08-24T01:12:40;100428.53;;;23.29
82400;BMP280;72039;48.812;8.198;2023-08-24T01:15:09;100433.47;;;23.30
82400;BMP280;72039;48.812;8.198;2023-08-24T01:17:42;100435.56;;;23.32
82400;BMP280;72039;48.812;8.198;2023-08-24T01:20:11;100446.88;;;23.34
82400;BMP280;72039;48.812;8.198;2023-08-24T01:25:51;100452.53;;;23.36
82400;BMP280;72039;48.812;8.198;2023-08-24T01:28:22;100458.94;;;23.34
82400;BMP280;72039;48.812;8.198;2023-08-24T01:30:50;100458.22;;;23.36
82400;BMP280;72039;48.812;8.198;2023-08-24T01:33:18;100462.47;;;23.39
82400;BMP280;72039;48.812;8.198;2023-08-24T01:35:46;100456.78;;;23.41
82400;BMP280;72039;48.812;8.198;2023-08-24T01:38:14;100459.59;;;23.41
82400;BMP280;72039;48.812;8.198;2023-08-24T01:43:13;100437.06;;;23.21
82400;BMP280;72039;48.812;8.198;2023-08-24T01:45:41;100439.94;;;23.06
82400;BMP280;72039;48.812;8.198;2023-08-24T01:48:09;100453.44;;;22.94
82400;BMP280;72039;48.812;8.198;2023-08-24T01:50:35;100483.88;;;22.85
82400;BMP280;72039;48.812;8.198;2023-08-24T01:53:03;100492.34;;;22.81
82400;BMP280;72039;48.812;8.198;2023-08-24T01:55:29;100468.34;;;22.80
82400;BMP280;72039;48.812;8.198;2023-08-24T01:57:55;100451.38;;;22.84
82400;BMP280;72039;48.812;8.198;2023-08-24T02:00:21;100456.97;;;22.90
82400;BMP280;72039;48.812;8.198;2023-08-24T02:02:49;100453.44;;;22.94
82400;BMP280;72039;48.812;8.198;2023-08-24T02:05:17;100445.66;;;22.94
82400;BMP280;72039;48.812;8.198;2023-08-24T02:07:42;100440.00;;;22.92
82400;BMP280;72039;48.812;8.198;2023-08-24T02:10:10;100444.94;;;22.94
82400;BMP280;72039;48.812;8.198;2023-08-24T02:12:36;100439.97;;;22.96
82400;BMP280;72039;48.812;8.198;2023-08-24T02:15:03;100434.31;;;22.96
82400;BMP280;72039;48.812;8.198;2023-08-24T02:17:30;100432.19;;;22.97
82400;BMP280;72039;48.812;8.198;2023-08-24T02:19:58;100442.81;;;22.96
82400;BMP280;72039;48.812;8.198;2023-08-24T02:22:23;100456.97;;;22.94
82400;BMP280;72039;48.812;8.198;2023-08-24T02:24:51;100452.75;;;22.93
82400;BMP280;72039;48.812;8.198;2023-08-24T02:27:17;100435.78;;;22.91
82400;BMP280;72039;48.812;8.198;2023-08-24T02:29:44;100426.56;;;22.91
82400;BMP280;72039;48.812;8.198;2023-08-24T02:32:15;100419.50;;;22.92
82400;BMP280;72039;48.812;8.198;2023-08-24T02:34:42;100421.63;;;22.91
82400;BMP280;72039;48.812;8.198;2023-08-24T02:37:08;100407.47;;;22.93
82400;BMP280;72039;48.812;8.198;2023-08-24T02:39:33;100401.13;;;22.87
82400;BMP280;72039;48.812;8.198;2023-08-24T02:41:59;100398.31;;;22.76
82400;BMP280;72039;48.812;8.198;2023-08-24T02:44:24;100411.06;;;22.69
82400;BMP280;72039;48.812;8.198;2023-08-24T02:46:51;100416.03;;;22.65
82400;BMP280;72039;48.812;8.198;2023-08-24T02:49:16;100398.38;;;22.64
82400;BMP280;72039;48.812;8.198;2023-08-24T02:51:42;100387.75;;;22.65
82400;BMP280;72039;48.812;8.198;2023-08-24T02:54:07;100385.63;;;22.65
82400;BMP280;72039;48.812;8.198;2023-08-24T02:56:37;100380.69;;;22.64
82400;BMP280;72039;48.812;8.198;2023-08-24T02:59:04;100375.03;;;22.64
82400;BMP280;72039;48.812;8.198;2023-08-24T03:01:35;100365.09;;;22.67
82400;BMP280;72039;48.812;8.198;2023-08-24T03:04:04;100358.00;;;22.70
82400;BMP280;72039;48.812;8.198;2023-08-24T03:06:32;100353.78;;;22.67
82400;BMP280;72039;48.812;8.198;2023-08-24T03:09:00;100339.66;;;22.63
82400;BMP280;72039;48.812;8.198;2023-08-24T03:11:26;100342.53;;;22.52
82400;BMP280;72039;48.812;8.198;2023-08-24T03:13:53;100348.91;;;22.49
82400;BMP280;72039;48.812;8.198;2023-08-24T03:16:19;100345.34;;;22.50
82400;BMP280;72039;48.812;8.198;2023-08-24T03:18:45;100329.09;;;22.51
82400;BMP280;72039;48.812;8.198;2023-08-24T03:21:11;100324.19;;;22.49
82400;BMP280;72039;48.812;8.198;2023-08-24T03:23:36;100324.19;;;22.49
82400;BMP280;72039;48.812;8.198;2023-08-24T03:26:01;100325.56;;;22.50
82400;BMP280;72039;48.812;8.198;2023-08-24T03:28:29;100329.09;;;22.55
82400;BMP280;72039;48.812;8.198;2023-08-24T03:30:57;100328.34;;;22.61
82400;BMP280;72039;48.812;8.198;2023-08-24T03:33:25;100324.09;;;22.66
82400;BMP280;72039;48.812;8.198;2023-08-24T03:35:55;100316.31;;;22.68
82400;BMP280;72039;48.812;8.198;2023-08-24T03:38:21;100314.19;;;22.71
82400;BMP280;72039;48.812;8.198;2023-08-24T03:40:48;100304.31;;;22.68
82400;BMP280;72039;48.812;8.198;2023-08-24T03:43:14;100301.47;;;22.66
82400;BMP280;72039;48.812;8.198;2023-08-24T03:45:42;100308.56;;;22.61
82400;BMP280;72039;48.812;8.198;2023-08-24T03:48:13;100294.44;;;22.54
82400;BMP280;72039;48.812;8.198;2023-08-24T03:50:39;100294.44;;;22.54
82400;BMP280;72039;48.812;8.198;2023-08-24T03:53:05;100291.63;;;22.52
82400;BMP280;72039;48.812;8.198;2023-08-24T03:55:33;100290.94;;;22.48
82400;BMP280;72039;48.812;8.198;2023-08-24T03:58:02;100288.13;;;22.46
82400;BMP280;72039;48.812;8.198;2023-08-24T04:00:27;100289.53;;;22.43
82400;BMP280;72039;48.812;8.198;2023-08-24T04:02:56;100281.75;;;22.43
82400;BMP280;72039;48.812;8.198;2023-08-24T04:05:21;100280.34;;;22.42
82400;BMP280;72039;48.812;8.198;2023-08-24T04:07:47;100276.13;;;22.37
82400;BMP280;72039;48.812;8.198;2023-08-24T04:10:12;100274.03;;;22.31
82400;BMP280;72039;48.812;8.198;2023-08-24T04:12:40;100279.69;;;22.23
82400;BMP280;72039;48.812;8.198;2023-08-24T04:15:06;100287.47;;;22.19
82400;BMP280;72039;48.812;8.198;2023-08-24T04:17:35;100290.34;;;22.15
82400;BMP280;72039;48.812;8.198;2023-08-24T04:20:06;100279.03;;;22.13
82400;BMP280;72039;48.812;8.198;2023-08-24T04:22:34;100277.59;;;22.12
82400;BMP280;72039;48.812;8.198;2023-08-24T04:25:02;100280.44;;;22.18
82400;BMP280;72039;48.812;8.198;2023-08-24T04:27:27;100286.78;;;22.24
82400;BMP280;72039;48.812;8.198;2023-08-24T04:29:55;100278.25;;;22.32
82400;BMP280;72039;48.812;8.198;2023-08-24T04:32:22;100287.44;;;22.41
82400;BMP280;72039;48.812;8.198;2023-08-24T04:34:47;100287.41;;;22.47
82400;BMP280;72039;48.812;8.198;2023-08-24T04:37:16;100279.63;;;22.52
82400;BMP280;72039;48.812;8.198;2023-08-24T04:39:43;100271.81;;;22.54
82400;BMP280;72039;48.812;8.198;2023-08-24T04:44:44;100272.53;;;22.55
82400;BMP280;72039;48.812;8.198;2023-08-24T04:47:10;100266.16;;;22.54
82400;BMP280;72039;48.812;8.198;2023-08-24T04:49:35;100253.44;;;22.53
82400;BMP280;72039;48.812;8.198;2023-08-24T04:52:01;100254.84;;;22.56
82400;BMP280;72039;48.812;8.198;2023-08-24T04:54:27;100249.91;;;22.61
82400;BMP280;72039;48.812;8.198;2023-08-24T04:56:52;100253.41;;;22.64
82400;BMP280;72039;48.812;8.198;2023-08-24T04:59:17;100246.72;;;22.61
82400;BMP280;72039;48.812;8.198;2023-08-24T05:01:43;100250.59;;;22.59
82400;BMP280;72039;48.812;8.198;2023-08-24T05:04:08;100250.59;;;22.59
82400;BMP280;72039;48.812;8.198;2023-08-24T05:06:33;100244.94;;;22.59
82400;BMP280;72039;48.812;8.198;2023-08-24T05:08:59;100246.34;;;22.61
82400;BMP280;72039;48.812;8.198;2023-08-24T05:11:27;100244.94;;;22.62
82400;BMP280;72039;48.812;8.198;2023-08-24T05:13:54;100241.38;;;22.63
82400;BMP280;72039;48.812;8.198;2023-08-24T05:16:21;100237.13;;;22.64
82400;BMP280;72039;48.812;8.198;2023-08-24T05:18:47;100242.09;;;22.64
82400;BMP280;72039;48.812;8.198;2023-08-24T05:21:15;100246.34;;;22.61
82400;BMP280;72039;48.812;8.198;2023-08-24T05:23:40;100250.59;;;22.59
82400;BMP280;72039;48.812;8.198;2023-08-24T05:26:05;100248.44;;;22.62
82400;BMP280;72039;48.812;8.198;2023-08-24T05:28:33;100258.34;;;22.65
82400;BMP280;72039;48.812;8.198;2023-08-24T05:30:59;100254.78;;;22.69
82400;BMP280;72039;48.812;8.198;2023-08-24T05:33:25;100267.50;;;22.72
82400;BMP280;72039;48.812;8.198;2023-08-24T05:35:58;100272.44;;;22.69
82400;BMP280;72039;48.812;8.198;2023-08-24T05:38:28;100280.25;;;22.69
82400;BMP280;72039;48.812;8.198;2023-08-24T05:40:53;100284.47;;;22.72
82400;BMP280;72039;48.812;8.198;2023-08-24T05:43:21;100298.59;;;22.76
82400;BMP280;72039;48.812;8.198;2023-08-24T05:45:48;100316.94;;;22.83
82400;BMP280;72039;48.812;8.198;2023-08-24T05:48:15;100334.63;;;22.88
82400;BMP280;72039;48.812;8.198;2023-08-24T05:50:45;100348.03;;;22.91
82400;BMP280;72039;48.812;8.198;2023-08-24T05:53:11;100362.88;;;22.94
82400;BMP280;72039;48.812;8.198;2023-08-24T05:55:36;100372.78;;;22.95
82400;BMP280;72039;48.812;8.198;2023-08-24T05:58:04;100384.81;;;22.95
82400;BMP280;72039;48.812;8.198;2023-08-24T06:00:29;100385.53;;;22.96
82400;BMP280;72039;48.812;8.198;2023-08-24T06:02:55;100376.31;;;22.99
82400;BMP280;72039;48.812;8.198;2023-08-24T06:05:20;100361.44;;;23.01
82400;BMP280;72039;48.812;8.198;2023-08-24T06:07:45;100374.16;;;23.02
82400;BMP280;72039;48.812;8.198;2023-08-24T06:10:13;100389.00;;;23.06
82400;BMP280;72039;48.812;8.198;2023-08-24T06:12:41;100386.84;;;23.11
82400;BMP280;72039;48.812;8.198;2023-08-24T06:15:07;100387.53;;;23.13
82400;BMP280;72039;48.812;8.198;2023-08-24T06:17:35;100388.97;;;23.10
82400;BMP280;72039;48.812;8.198;2023-08-24T06:20:02;100395.34;;;23.11
82400;BMP280;72039;48.812;8.198;2023-08-24T06:22:28;100386.81;;;23.17
82400;BMP280;72039;48.812;8.198;2023-08-24T06:24:59;100370.53;;;23.22
82400;BMP280;72039;48.812;8.198;2023-08-24T06:27:26;100362.00;;;23.26
82400;BMP280;72039;48.812;8.198;2023-08-24T06:29:51;100364.13;;;23.25
82400;BMP280;72039;48.812;8.198;2023-08-24T06:32:17;100382.53;;;23.22
82400;BMP280;72039;48.812;8.198;2023-08-24T06:34:42;100406.59;;;23.25
82400;BMP280;72039;48.812;8.198;2023-08-24T06:37:07;100404.47;;;23.30
82400;BMP280;72039;48.812;8.198;2023-08-24T06:39:32;100386.69;;;23.37
82400;BMP280;72039;48.812;8.198;2023-08-24T06:41:58;100385.91;;;23.51
82400;BMP280;72039;48.812;8.198;2023-08-24T06:44:27;100383.03;;;23.57
82400;BMP280;72039;48.812;8.198;2023-08-24T06:46:52;100384.41;;;23.64
82400;BMP280;72039;48.812;8.198;2023-08-24T06:49:20;100383.66;;;23.70
82400;BMP280;72039;48.812;8.198;2023-08-24T06:51:45;100380.09;;;23.74
82400;BMP280;72039;48.812;8.198;2023-08-24T06:54:15;100358.75;;;23.83
82400;BMP280;72039;48.812;8.198;2023-08-24T06:56:41;100357.19;;;24.00
82400;BMP280;72039;48.812;8.198;2023-08-24T06:59:06;100354.13;;;24.20
82400;BMP280;72039;48.812;8.198;2023-08-24T07:01:32;100349.00;;;24.35
82400;BMP280;72039;48.812;8.198;2023-08-24T07:04:00;100342.44;;;24.49
82400;BMP280;72039;48.812;8.198;2023-08-24T07:06:25;100342.31;;;24.63
82400;BMP280;72039;48.812;8.198;2023-08-24T07:08:50;100334.94;;;24.83
82400;BMP280;72039;48.812;8.198;2023-08-24T07:11:16;100343.94;;;24.99
82400;BMP280;72039;48.812;8.198;2023-08-24T07:13:42;100330.84;;;25.21
82400;BMP280;72039;48.812;8.198;2023-08-24T07:16:07;100335.63;;;25.33
82400;BMP280;72039;48.812;8.198;2023-08-24T07:18:35;100326.31;;;25.36
82400;BMP280;72039;48.812;8.198;2023-08-24T07:21:00;100330.34;;;25.51
82400;BMP280;72039;48.812;8.198;2023-08-24T07:23:26;100335.06;;;25.67
82400;BMP280;72039;48.812;8.198;2023-08-24T07:25:54;100329.81;;;25.82
82400;BMP280;72039;48.812;8.198;2023-08-24T07:28:19;100325.34;;;25.93
82400;BMP280;72039;48.812;8.198;2023-08-24T07:30:44;100318.03;;;26.04
82400;BMP280;72039;48.812;8.198;2023-08-24T07:33:10;100326.28;;;26.19
82400;BMP280;72039;48.812;8.198;2023-08-24T07:35:37;100322.41;;;26.34
82400;BMP280;72039;48.812;8.198;2023-08-24T07:38:04;100328.50;;;26.49
82400;BMP280;72039;48.812;8.198;2023-08-24T07:40:30;100321.66;;;26.69
82400;BMP280;72039;48.812;8.198;2023-08-24T07:42:55;100329.16;;;26.83
82400;BMP280;72039;48.812;8.198;2023-08-24T07:45:22;100341.00;;;26.95
82400;BMP280;72039;48.812;8.198;2023-08-24T07:47:48;100339.22;;;27.11
82400;BMP280;72039;48.812;8.198;2023-08-24T07:50:14;100328.19;;;27.26
82400;BMP280;72039;48.812;8.198;2023-08-24T07:52:40;100322.97;;;27.34
82400;BMP280;72039;48.812;8.198;2023-08-24T07:55:06;100318.41;;;27.45
82400;BMP280;72039;48.812;8.198;2023-08-24T07:57:35;100325.19;;;27.59
82400;BMP280;72039;48.812;8.198;2023-08-24T08:00:01;100327.91;;;27.65
82400;BMP280;72039;48.812;8.198;2023-08-24T08:02:30;100337.78;;;27.68
82400;BMP280;72039;48.812;8.198;2023-08-24T08:04:59;100334.53;;;27.82
82400;BMP280;72039;48.812;8.198;2023-08-24T08:07:26;100331.31;;;27.96
82400;BMP280;72039;48.812;8.198;2023-08-24T08:09:51;100338.84;;;28.08
82400;BMP280;72039;48.812;8.198;2023-08-24T08:12:17;100334.94;;;28.20
82400;BMP280;72039;48.812;8.198;2023-08-24T08:14:42;100336.56;;;28.37
82400;BMP280;72039;48.812;8.198;2023-08-24T08:17:07;100334.09;;;28.48
82400;BMP280;72039;48.812;8.198;2023-08-24T08:19:33;100329.53;;;28.57
82400;BMP280;72039;48.812;8.198;2023-08-24T08:22:00;100337.78;;;28.67
82400;BMP280;72039;48.812;8.198;2023-08-24T08:24:26;100332.44;;;28.78
82400;BMP280;72039;48.812;8.198;2023-08-24T08:26:51;100327.09;;;28.89
82400;BMP280;72039;48.812;8.198;2023-08-24T08:29:17;100330.34;;;29.00
82400;BMP280;72039;48.812;8.198;2023-08-24T08:31:43;100330.13;;;29.06
82400;BMP280;72039;48.812;8.198;2023-08-24T08:34:08;100324.78;;;29.16
82400;BMP280;72039;48.812;8.198;2023-08-24T08:36:33;100318.03;;;29.26
82400;BMP280;72039;48.812;8.198;2023-08-24T08:39:01;100317.03;;;29.34
82400;BMP280;72039;48.812;8.198;2023-08-24T08:41:32;100319.56;;;29.44
82400;BMP280;72039;48.812;8.198;2023-08-24T08:47:28;100304.66;;;29.81
82400;BMP280;72039;48.812;8.198;2023-08-24T08:49:55;100284.28;;;29.91
82400;BMP280;72039;48.812;8.198;2023-08-24T08:52:20;100275.50;;;29.95
82400;BMP280;72039;48.812;8.198;2023-08-24T08:54:46;100275.38;;;29.99
82400;BMP280;72039;48.812;8.198;2023-08-24T08:57:11;100281.56;;;30.06
82400;BMP280;72039;48.812;8.198;2023-08-24T08:59:38;100279.53;;;30.21
82400;BMP280;72039;48.812;8.198;2023-08-24T09:02:03;100283.31;;;30.34
82400;BMP280;72039;48.812;8.198;2023-08-24T09:04:33;100282.84;;;30.47
82400;BMP280;72039;48.812;8.198;2023-08-24T09:06:58;100268.81;;;30.57
82400;BMP280;72039;48.812;8.198;2023-08-24T09:09:26;100256.78;;;30.72
82400;BMP280;72039;48.812;8.198;2023-08-24T09:11:54;100257.13;;;30.80
82400;BMP280;72039;48.812;8.198;2023-08-24T09:14:19;100248.69;;;30.93
82400;BMP280;72039;48.812;8.198;2023-08-24T09:16:45;100238.88;;;31.05
82400;BMP280;72039;48.812;8.198;2023-08-24T09:19:11;100240.69;;;31.12
82400;BMP280;72039;48.812;8.198;2023-08-24T09:21:37;100227.50;;;31.19
82400;BMP280;72039;48.812;8.198;2023-08-24T09:24:09;100226.94;;;31.32
82400;BMP280;72039;48.812;8.198;2023-08-24T09:26:39;100219.97;;;31.43
82400;BMP280;72039;48.812;8.198;2023-08-24T09:29:15;100210.81;;;31.55
82400;BMP280;72039;48.812;8.198;2023-08-24T09:31:43;100206.09;;;31.65
82400;BMP280;72039;48.812;8.198;2023-08-24T09:34:18;100199.91;;;31.75
82400;BMP280;72039;48.812;8.198;2023-08-24T09:36:48;100190.88;;;31.83
82400;BMP280;72039;48.812;8.198;2023-08-24T09:39:16;100187.06;;;31.88
82400;BMP280;72039;48.812;8.198;2023-08-24T09:41:49;100189.09;;;31.90
82400;BMP280;72039;48.812;8.198;2023-08-24T09:44:14;100185.69;;;32.02
82400;BMP280;72039;48.812;8.198;2023-08-24T09:46:40;100178.63;;;32.14
82400;BMP280;72039;48.812;8.198;2023-08-24T09:49:12;100183.94;;;32.22
82400;BMP280;72039;48.812;8.198;2023-08-24T09:51:39;100180.59;;;32.32
82400;BMP280;72039;48.812;8.198;2023-08-24T09:54:06;100173.47;;;32.46
82400;BMP280;72039;48.812;8.198;2023-08-24T09:56:35;100157.88;;;32.56
82400;BMP280;72039;48.812;8.198;2023-08-24T10:01:32;100158.56;;;32.56
82400;BMP280;72039;48.812;8.198;2023-08-24T10:04:01;100159.50;;;32.65
82400;BMP280;72039;48.812;8.198;2023-08-24T10:06:28;100150.81;;;32.67
82400;BMP280;72039;48.812;8.198;2023-08-24T10:08:58;100141.16;;;32.73
82400;BMP280;72039;48.812;8.198;2023-08-24T10:11:31;100137.09;;;32.83
82400;BMP280;72039;48.812;8.198;2023-08-24T10:14:04;100140.88;;;32.92
82400;BMP280;72039;48.812;8.198;2023-08-24T10:16:33;100141.25;;;32.98
82400;BMP280;72039;48.812;8.198;2023-08-24T10:19:05;100131.72;;;33.02
82400;BMP280;72039;48.812;8.198;2023-08-24T10:21:31;100133.44;;;32.97
82400;BMP280;72039;48.812;8.198;2023-08-24T10:23:57;100132.69;;;32.84
82400;BMP280;72039;48.812;8.198;2023-08-24T10:26:23;100115.81;;;32.90
82400;BMP280;72039;48.812;8.198;2023-08-24T10:28:50;100104.91;;;32.93
82400;BMP280;72039;48.812;8.198;2023-08-24T10:31:18;100098.84;;;32.99
82400;BMP280;72039;48.812;8.198;2023-08-24T10:33:45;100094.13;;;33.06
82400;BMP280;72039;48.812;8.198;2023-08-24T10:36:12;100089.28;;;33.02
82400;BMP280;72039;48.812;8.198;2023-08-24T10:38:42;100094.13;;;33.06
82400;BMP280;72039;48.812;8.198;2023-08-24T10:41:08;100090.44;;;33.07
82400;BMP280;72039;48.812;8.198;2023-08-24T10:43:34;100092.91;;;33.28
82400;BMP280;72039;48.812;8.198;2023-08-24T10:46:03;100082.88;;;33.53
82400;BMP280;72039;48.812;8.198;2023-08-24T10:53:57;100079.31;;;33.52
82400;BMP280;72039;48.812;8.198;2023-08-24T10:56:43;100079.88;;;33.55
82400;BMP280;72039;48.812;8.198;2023-08-24T10:59:19;100077.38;;;33.49
82400;BMP280;72039;48.812;8.198;2023-08-24T11:01:55;100083.78;;;33.36
82400;BMP280;72039;48.812;8.198;2023-08-24T11:04:21;100091.28;;;33.31
82400;BMP280;72039;48.812;8.198;2023-08-24T11:06:59;100077.97;;;33.38
82400;BMP280;72039;48.812;8.198;2023-08-24T11:09:44;100068.38;;;33.55
82400;BMP280;72039;48.812;8.198;2023-08-24T11:12:10;100064.13;;;33.66
82400;BMP280;72039;48.812;8.198;2023-08-24T11:14:48;100071.38;;;33.53
82400;BMP280;72039;48.812;8.198;2023-08-24T11:17:18;100072.09;;;33.41
82400;BMP280;72039;48.812;8.198;2023-08-24T11:19:51;100069.88;;;33.28
82400;BMP280;72039;48.812;8.198;2023-08-24T11:22:17;100065.84;;;33.23
82400;BMP280;72039;48.812;8.198;2023-08-24T11:24:43;100060.56;;;33.28
82400;BMP280;72039;48.812;8.198;2023-08-24T11:27:11;100069.66;;;33.32
82400;BMP280;72039;48.812;8.198;2023-08-24T11:29:36;100210.47;;;33.38
82400;BMP280;72039;48.812;8.198;2023-08-24T11:32:02;100070.22;;;33.35
82400;BMP280;72039;48.812;8.198;2023-08-24T11:34:27;100057.91;;;33.36
82400;BMP280;72039;48.812;8.198;2023-08-24T11:36:53;100065.16;;;33.48
82400;BMP280;72039;48.812;8.198;2023-08-24T11:39:20;100060.44;;;33.68
82400;BMP280;72039;48.812;8.198;2023-08-24T11:42:06;100046.34;;;33.87
82400;BMP280;72039;48.812;8.198;2023-08-24T11:44:47;100042.91;;;33.85
82400;BMP280;72039;48.812;8.198;2023-08-24T11:47:13;100035.09;;;33.70
82400;BMP280;72039;48.812;8.198;2023-08-24T11:49:41;100029.16;;;33.62
82400;BMP280;72039;48.812;8.198;2023-08-24T11:52:07;100035.25;;;33.56
82400;BMP280;72039;48.812;8.198;2023-08-24T11:54:33;100039.28;;;33.61
82400;BMP280;72039;48.812;8.198;2023-08-24T11:57:00;100029.34;;;33.58
82400;BMP280;72039;48.812;8.198;2023-08-24T11:59:26;100028.56;;;33.47
82400;BMP280;72039;48.812;8.198;2023-08-24T12:01:52;100018.91;;;33.39
82400;BMP280;72039;48.812;8.198;2023-08-24T12:04:20;100026.41;;;33.34
82400;BMP280;72039;48.812;8.198;2023-08-24T12:06:47;100025.59;;;33.23
82400;BMP280;72039;48.812;8.198;2023-08-24T12:09:13;100016.63;;;33.17
82400;BMP280;72039;48.812;8.198;2023-08-24T12:11:40;100021.00;;;33.28
82400;BMP280;72039;48.812;8.198;2023-08-24T12:14:13;100004.31;;;33.44
82400;BMP280;72039;48.812;8.198;2023-08-24T12:16:44;100006.56;;;33.66
82400;BMP280;72039;48.812;8.198;2023-08-24T12:19:11;99997.78;;;33.81
82400;BMP280;72039;48.812;8.198;2023-08-24T12:21:43;99991.97;;;33.94
82400;BMP280;72039;48.812;8.198;2023-08-24T12:24:13;99985.75;;;34.02
82400;BMP280;72039;48.812;8.198;2023-08-24T12:26:38;99986.34;;;34.15
82400;BMP280;72039;48.812;8.198;2023-08-24T12:29:08;99969.16;;;34.26
82400;BMP280;72039;48.812;8.198;2023-08-24T12:31:34;99965.19;;;34.31
82400;BMP280;72039;48.812;8.198;2023-08-24T12:34:03;99956.72;;;34.40
82400;BMP280;72039;48.812;8.198;2023-08-24T12:36:30;99963.91;;;34.52
82400;BMP280;72039;48.812;8.198;2023-08-24T12:38:58;99956.94;;;34.59
82400;BMP280;72039;48.812;8.198;2023-08-24T12:41:24;99952.81;;;34.56
82400;BMP280;72039;48.812;8.198;2023-08-24T12:43:53;99949.56;;;34.62
82400;BMP280;72039;48.812;8.198;2023-08-24T12:46:18;99955.72;;;34.67
82400;BMP280;72039;48.812;8.198;2023-08-24T12:48:43;99963.28;;;34.62
82400;BMP280;72039;48.812;8.198;2023-08-24T12:51:11;99956.16;;;34.72
82400;BMP280;72039;48.812;8.198;2023-08-24T12:53:37;99946.84;;;34.82
82400;BMP280;72039;48.812;8.198;2023-08-24T12:56:02;99938.63;;;34.86
82400;BMP280;72039;48.812;8.198;2023-08-24T12:58:27;99942.34;;;34.96
82400;BMP280;72039;48.812;8.198;2023-08-24T13:00:55;99928.66;;;34.96
82400;BMP280;72039;48.812;8.198;2023-08-24T13:03:20;99918.22;;;35.01
82400;BMP280;72039;48.812;8.198;2023-08-24T13:05:45;99907.63;;;34.87
82400;BMP280;72039;48.812;8.198;2023-08-24T13:08:12;99889.63;;;34.86
82400;BMP280;72039;48.812;8.198;2023-08-24T13:10:38;99892.94;;;34.91
82400;BMP280;72039;48.812;8.198;2023-08-24T13:13:03;99889.50;;;34.88
82400;BMP280;72039;48.812;8.198;2023-08-24T13:15:29;99888.25;;;34.85
82400;BMP280;72039;48.812;8.198;2023-08-24T13:17:57;99881.25;;;34.82
82400;BMP280;72039;48.812;8.198;2023-08-24T13:20:25;99889.34;;;34.80
82400;BMP280;72039;48.812;8.198;2023-08-24T13:22:53;99893.44;;;34.61
82400;BMP280;72039;48.812;8.198;2023-08-24T13:25:18;99888.44;;;34.49
82400;BMP280;72039;48.812;8.198;2023-08-24T13:27:46;99898.38;;;34.29
82400;BMP280;72039;48.812;8.198;2023-08-24T13:30:11;99905.94;;;34.00
82400;BMP280;72039;48.812;8.198;2023-08-24T13:32:37;99909.81;;;33.84
82400;BMP280;72039;48.812;8.198;2023-08-24T13:35:06;99920.69;;;33.71
82400;BMP280;72039;48.812;8.198;2023-08-24T13:37:33;99923.25;;;33.64
82400;BMP280;72039;48.812;8.198;2023-08-24T13:39:59;99934.78;;;33.52
82400;BMP280;72039;48.812;8.198;2023-08-24T13:42:25;99949.88;;;33.39
82400;BMP280;72039;48.812;8.198;2023-08-24T13:44:52;99951.97;;;33.28
82400;BMP280;72039;48.812;8.198;2023-08-24T13:47:17;99959.72;;;33.19
82400;BMP280;72039;48.812;8.198;2023-08-24T13:49:43;99985.25;;;33.13
82400;BMP280;72039;48.812;8.198;2023-08-24T13:52:08;99981.31;;;33.05
82400;BMP280;72039;48.812;8.198;2023-08-24T13:54:39;99989.47;;;32.88
82400;BMP280;72039;48.812;8.198;2023-08-24T13:57:04;100023.00;;;32.66
82400;BMP280;72039;48.812;8.198;2023-08-24T13:59:30;100085.31;;;32.42
82400;BMP280;72039;48.812;8.198;2023-08-24T14:01:55;100126.16;;;32.15
82400;BMP280;72039;48.812;8.198;2023-08-24T14:04:20;100134.69;;;31.88
82400;BMP280;72039;48.812;8.198;2023-08-24T14:06:46;100114.38;;;31.63
82400;BMP280;72039;48.812;8.198;2023-08-24T14:09:13;100093.00;;;31.45
82400;BMP280;72039;48.812;8.198;2023-08-24T14:11:38;100068.78;;;31.27
82400;BMP280;72039;48.812;8.198;2023-08-24T14:14:08;100081.25;;;31.05
82400;BMP280;72039;48.812;8.198;2023-08-24T14:16:37;100078.22;;;30.77
82400;BMP280;72039;48.812;8.198;2023-08-24T14:19:02;100074.25;;;30.53
82400;BMP280;72039;48.812;8.198;2023-08-24T14:21:30;100074.50;;;30.30
82400;BMP280;72039;48.812;8.198;2023-08-24T14:23:58;100099.72;;;30.09
82400;BMP280;72039;48.812;8.198;2023-08-24T14:26:24;73114.34;;;29.91
82400;BMP280;72039;48.812;8.198;2023-08-24T14:28:54;100065.56;;;29.69